createdAt,value
2016-06-12T00:00:28.936Z,60.31
2016-06-12T00:01:28.876Z,60.88
2016-06-12T00:02:25.892Z,60.5
2016-06-12T00:03:28.804Z,60.6
2016-06-12T00:04:25.788Z,60.4
2016-06-12T00:05:28.544Z,60.31
2016-06-12T00:06:25.638Z,60.4
2016-06-12T00:07:25.611Z,60.5
2016-06-12T00:08:28.595Z,60.11
2016-06-12T00:09:25.548Z,60.78
2016-06-12T00:10:25.543Z,60.6
2016-06-12T00:11:25.506Z,60.6
2016-06-12T00:12:25.500Z,60.6
2016-06-12T00:13:25.510Z,60.88
2016-06-12T00:14:25.504Z,60.98
2016-06-12T00:15:25.442Z,61.08
2016-06-12T00:16:25.413Z,61.08
2016-06-12T00:17:25.398Z,60.69
2016-06-12T00:18:25.368Z,61.08
2016-06-12T00:19:25.316Z,61.17
2016-06-12T00:20:25.465Z,61.17
2016-06-12T00:21:25.238Z,61.08
2016-06-12T00:22:25.200Z,60.69
2016-06-12T00:23:25.161Z,61.36
2016-06-12T00:24:25.120Z,60.98
2016-06-12T00:25:28.281Z,61.27
2016-06-12T00:26:25.036Z,61.36
2016-06-12T00:27:25.010Z,61.65
2016-06-12T00:28:24.952Z,61.84
2016-06-12T00:29:24.909Z,61.75
2016-06-12T00:30:24.867Z,61.84
2016-06-12T00:31:24.823Z,61.75
2016-06-12T00:32:24.764Z,61.75
2016-06-12T00:33:24.720Z,61.65
2016-06-12T00:34:24.693Z,61.55
2016-06-12T00:35:24.977Z,61.55
2016-06-12T00:36:24.590Z,61.46
2016-06-12T00:37:24.547Z,61.55
2016-06-12T00:38:24.737Z,62.13
2016-06-12T00:39:24.459Z,62.23
2016-06-12T00:40:24.510Z,62.23
2016-06-12T00:41:24.371Z,62.13
2016-06-12T00:42:24.407Z,61.94
2016-06-12T00:43:24.284Z,62.13
2016-06-12T00:44:24.241Z,62.13
2016-06-12T00:45:24.197Z,62.42
2016-06-12T00:46:24.153Z,62.04
2016-06-12T00:47:27.109Z,62.52
2016-06-12T00:48:24.050Z,62.81
2016-06-12T00:49:24.006Z,62.71
2016-06-12T00:50:23.807Z,62.32
2016-06-12T00:51:23.980Z,63.28
2016-06-12T00:52:23.859Z,62.99
2016-06-12T00:53:24.033Z,62.9
2016-06-12T00:54:23.787Z,62.71
2016-06-12T00:55:23.759Z,62.81
2016-06-12T00:56:23.683Z,62.71
2016-06-12T00:57:23.640Z,62.71
2016-06-12T00:58:23.612Z,62.61
2016-06-12T00:59:29.599Z,62.9
2016-06-12T01:00:26.508Z,62.71
2016-06-12T01:01:26.480Z,62.81
2016-06-12T01:02:26.436Z,62.71
2016-06-12T01:03:23.580Z,62.71
2016-06-12T01:04:23.334Z,63.09
2016-06-12T01:05:23.289Z,62.99
2016-06-12T01:06:23.261Z,63.09
2016-06-12T01:07:23.201Z,63.28
2016-06-12T01:08:26.158Z,63.09
2016-06-12T01:09:23.317Z,62.99
2016-06-12T01:10:26.274Z,63.38
2016-06-12T01:11:23.230Z,63.48
2016-06-12T01:12:26.169Z,63.19
2016-06-12T01:13:22.923Z,63.19
2016-06-12T01:14:23.083Z,63.38
2016-06-12T01:15:25.851Z,63.19
2016-06-12T01:16:22.996Z,62.99
2016-06-12T01:17:22.748Z,62.99
2016-06-12T01:18:22.752Z,63.09
2016-06-12T01:19:22.660Z,63.48
2016-06-12T01:20:23.241Z,63.19
2016-06-12T01:21:22.557Z,63.19
2016-06-12T01:22:22.544Z,63.57
2016-06-12T01:23:22.470Z,63.57
2016-06-12T01:24:22.426Z,63.48
2016-06-12T01:25:22.382Z,63.57
2016-06-12T01:26:22.338Z,63.57
2016-06-12T01:27:28.873Z,63.67
2016-06-12T01:28:22.251Z,63.48
2016-06-12T01:29:22.207Z,63.38
2016-06-12T01:30:22.163Z,63.76
2016-06-12T01:31:22.433Z,63.48
2016-06-12T01:32:22.075Z,63.67
2016-06-12T01:33:22.063Z,63.67
2016-06-12T01:34:21.973Z,63.86
2016-06-12T01:35:22.351Z,63.67
2016-06-12T01:36:24.901Z,63.57
2016-06-12T01:37:22.060Z,63.57
2016-06-12T01:38:24.813Z,63.67
2016-06-12T01:39:21.832Z,63.38
2016-06-12T01:40:21.725Z,63.48
2016-06-12T01:41:21.682Z,63.48
2016-06-12T01:42:21.622Z,63.48
2016-06-12T01:43:21.594Z,63.57
2016-06-12T01:44:21.378Z,63.48
2016-06-12T01:45:21.694Z,63.48
2016-06-12T01:46:21.447Z,63.48
2016-06-12T01:47:21.402Z,63.67
2016-06-12T01:48:21.360Z,63.48
2016-06-12T01:49:21.300Z,63.48
2016-06-12T01:50:27.131Z,63.76
2016-06-12T01:51:21.228Z,64.25
2016-06-12T01:52:21.215Z,64.15
2016-06-12T01:53:21.125Z,64.22
2016-06-12T01:54:21.081Z,64.25
2016-06-12T01:55:21.553Z,64.15
2016-06-12T01:56:24.290Z,64.25
2016-06-12T01:57:20.949Z,64.15
2016-06-12T01:58:20.906Z,64.05
2016-06-12T01:59:21.064Z,63.96
2016-06-12T02:00:20.818Z,63.86
2016-06-12T02:01:20.759Z,64.5
2016-06-12T02:02:23.731Z,64.31
2016-06-12T02:03:20.531Z,64.4
2016-06-12T02:04:20.627Z,64.4
2016-06-12T02:05:20.787Z,64.12
2016-06-12T02:06:20.743Z,64.43
2016-06-12T02:07:20.496Z,64.59
2016-06-12T02:08:20.467Z,64.5
2016-06-12T02:09:20.409Z,64.69
2016-06-12T02:10:20.365Z,64.59
2016-06-12T02:11:20.321Z,64.59
2016-06-12T02:12:20.262Z,64.69
2016-06-12T02:13:20.265Z,64.69
2016-06-12T02:14:20.174Z,64.69
2016-06-12T02:15:20.130Z,64.5
2016-06-12T02:16:20.086Z,64.4
2016-06-12T02:17:20.042Z,64.53
2016-06-12T02:18:19.998Z,64.63
2016-06-12T02:19:19.955Z,64.4
2016-06-12T02:20:19.911Z,64.59
2016-06-12T02:21:19.867Z,64.59
2016-06-12T02:22:22.840Z,64.69
2016-06-12T02:23:19.795Z,64.59
2016-06-12T02:24:19.798Z,64.69
2016-06-12T02:25:22.707Z,64.5
2016-06-12T02:26:19.648Z,64.69
2016-06-12T02:27:19.792Z,64.4
2016-06-12T02:28:19.638Z,64.59
2016-06-12T02:29:19.501Z,64.5
2016-06-12T02:30:22.473Z,64.31
2016-06-12T02:31:19.413Z,64.4
2016-06-12T02:32:19.354Z,64.53
2016-06-12T02:33:19.327Z,64.4
2016-06-12T02:34:22.282Z,64.5
2016-06-12T02:35:19.425Z,64.69
2016-06-12T02:36:19.194Z,64.4
2016-06-12T02:37:22.150Z,64.22
2016-06-12T02:38:19.107Z,64.5
2016-06-12T02:39:22.048Z,64.31
2016-06-12T02:40:22.020Z,64.22
2016-06-12T02:41:18.959Z,64.59
2016-06-12T02:42:18.916Z,64.59
2016-06-12T02:43:18.888Z,64.5
2016-06-12T02:44:18.828Z,64.69
2016-06-12T02:45:18.785Z,64.02
2016-06-12T02:46:18.928Z,64.22
2016-06-12T02:47:18.697Z,64.59
2016-06-12T02:48:21.856Z,64.89
2016-06-12T02:49:18.797Z,64.59
2016-06-12T02:50:18.565Z,64.79
2016-06-12T02:51:18.506Z,65.36
2016-06-12T02:52:18.478Z,64.89
2016-06-12T02:53:18.418Z,64.98
2016-06-12T02:54:18.374Z,65.36
2016-06-12T02:55:18.316Z,65.27
2016-06-12T02:56:18.287Z,65.17
2016-06-12T02:57:18.227Z,65.08
2016-06-12T02:58:18.184Z,64.79
2016-06-12T02:59:18.156Z,64.89
2016-06-12T03:00:18.112Z,65.08
2016-06-12T03:01:18.052Z,65.17
2016-06-12T03:02:18.008Z,65.65
2016-06-12T03:03:18.152Z,65.65
2016-06-12T03:04:17.905Z,65.56
2016-06-12T03:05:17.893Z,65.56
2016-06-12T03:06:18.411Z,65.17
2016-06-12T03:07:20.789Z,65.08
2016-06-12T03:08:17.746Z,65.27
2016-06-12T03:09:17.905Z,65.08
2016-06-12T03:10:17.673Z,65.17
2016-06-12T03:11:17.615Z,65.08
2016-06-12T03:12:17.571Z,65.27
2016-06-12T03:13:17.511Z,65.08
2016-06-12T03:14:17.467Z,65.08
2016-06-12T03:15:17.423Z,65.27
2016-06-12T03:16:17.365Z,65.36
2016-06-12T03:17:17.539Z,65.27
2016-06-12T03:18:17.495Z,65.27
2016-06-12T03:19:17.232Z,65.27
2016-06-12T03:20:20.407Z,65.17
2016-06-12T03:21:17.005Z,65.27
2016-06-12T03:22:20.101Z,65.08
2016-06-12T03:23:23.072Z,65.08
2016-06-12T03:24:17.014Z,64.89
2016-06-12T03:25:16.986Z,65.08
2016-06-12T03:26:16.973Z,65.17
2016-06-12T03:27:19.882Z,64.79
2016-06-12T03:28:17.042Z,64.79
2016-06-12T03:29:16.795Z,65.17
2016-06-12T03:30:19.767Z,65.36
2016-06-12T03:31:16.691Z,65.75
2016-06-12T03:32:16.647Z,65.56
2016-06-12T03:33:16.604Z,65.65
2016-06-12T03:34:16.561Z,66.13
2016-06-12T03:35:20.110Z,66.23
2016-06-12T03:36:16.472Z,66.52
2016-06-12T03:37:19.445Z,66.03
2016-06-12T03:38:16.385Z,66.13
2016-06-12T03:39:16.326Z,66.33
2016-06-12T03:40:16.297Z,66.13
2016-06-12T03:41:19.269Z,66.42
2016-06-12T03:42:16.414Z,66.23
2016-06-12T03:43:19.166Z,66.42
2016-06-12T03:44:19.137Z,66.13
2016-06-12T03:45:16.062Z,66.23
2016-06-12T03:46:16.018Z,66.23
2016-06-12T03:47:15.976Z,66.23
2016-06-12T03:48:19.135Z,66.23
2016-06-12T03:49:15.887Z,66.33
2016-06-12T03:50:16.172Z,66.42
2016-06-12T03:51:16.503Z,66.52
2016-06-12T03:52:15.741Z,66.23
2016-06-12T03:53:15.712Z,66.42
2016-06-12T03:54:15.653Z,66.33
2016-06-12T03:55:15.501Z,66.33
2016-06-12T03:56:18.581Z,66.33
2016-06-12T03:57:15.537Z,66.13
2016-06-12T03:58:15.493Z,66.23
2016-06-12T03:59:15.637Z,66.23
2016-06-12T04:00:15.391Z,66.42
2016-06-12T04:01:18.347Z,66.71
2016-06-12T04:02:15.302Z,66.8
2016-06-12T04:03:18.258Z,66.8
2016-06-12T04:04:18.934Z,66.9
2016-06-12T04:05:15.359Z,66.71
2016-06-12T04:06:15.112Z,66.8
2016-06-12T04:07:15.068Z,67.09
2016-06-12T04:08:18.055Z,67.19
2016-06-12T04:09:15.058Z,67.38
2016-06-12T04:10:15.217Z,67.86
2016-06-12T04:11:18.095Z,68.24
2016-06-12T04:12:18.052Z,68.15
2016-06-12T04:13:18.008Z,68.73
2016-06-12T04:14:17.762Z,68.44
2016-06-12T04:15:14.545Z,68.73
2016-06-12T04:16:17.674Z,68.91
2016-06-12T04:17:14.614Z,69.11
2016-06-12T04:18:14.571Z,69.2
2016-06-12T04:19:14.526Z,69.2
2016-06-12T04:20:17.514Z,69.11
2016-06-12T04:21:14.439Z,69.11
2016-06-12T04:22:14.458Z,69.49
2016-06-12T04:23:17.336Z,69.3
2016-06-12T04:24:17.479Z,68.91
2016-06-12T04:25:14.264Z,69.3
2016-06-12T04:26:14.220Z,69.3
2016-06-12T04:27:14.207Z,69.68
2016-06-12T04:28:14.335Z,69.87
2016-06-12T04:29:14.089Z,69.68
2016-06-12T04:30:14.029Z,69.78
2016-06-12T04:31:13.986Z,69.59
2016-06-12T04:32:13.941Z,69.49
2016-06-12T04:33:13.929Z,69.68
2016-06-12T04:34:13.870Z,69.68
2016-06-12T04:35:13.810Z,69.68
2016-06-12T04:36:17.610Z,69.78
2016-06-12T04:37:16.722Z,70.26
2016-06-12T04:38:16.914Z,70.07
2016-06-12T04:39:13.619Z,70.07
2016-06-12T04:40:16.591Z,70.36
2016-06-12T04:41:16.548Z,70.17
2016-06-12T04:42:13.488Z,70.17
2016-06-12T04:43:13.648Z,70.17
2016-06-12T04:44:16.416Z,70.07
2016-06-12T04:45:13.372Z,70.36
2016-06-12T04:46:13.313Z,70.36
2016-06-12T04:47:16.269Z,70.36
2016-06-12T04:48:16.225Z,70.64
2016-06-12T04:49:16.181Z,70.55
2016-06-12T04:50:16.137Z,70.45
2016-06-12T04:51:16.109Z,71.03
2016-06-12T04:52:13.051Z,70.84
2016-06-12T04:53:13.006Z,70.93
2016-06-12T04:54:15.962Z,70.93
2016-06-12T04:55:13.106Z,70.74
2016-06-12T04:56:12.859Z,70.74
2016-06-12T04:57:12.815Z,70.93
2016-06-12T04:58:12.772Z,70.78
2016-06-12T04:59:15.743Z,70.78
2016-06-12T05:00:15.731Z,70.58
2016-06-12T05:01:18.656Z,70.78
2016-06-12T05:02:15.596Z,70.74
2016-06-12T05:03:12.537Z,70.87
2016-06-12T05:04:12.508Z,70.68
2016-06-12T05:05:12.652Z,71.45
2016-06-12T05:06:12.922Z,71.73
2016-06-12T05:07:12.378Z,71.64
2016-06-12T05:08:12.317Z,70.87
2016-06-12T05:09:12.273Z,70.87
2016-06-12T05:10:12.231Z,71.55
2016-06-12T05:11:12.218Z,71.45
2016-06-12T05:12:12.189Z,71.55
2016-06-12T05:13:12.208Z,71.25
2016-06-12T05:14:12.149Z,71.25
2016-06-12T05:15:12.074Z,71.45
2016-06-12T05:16:11.952Z,71.83
2016-06-12T05:17:12.189Z,71.73
2016-06-12T05:18:11.864Z,71.55
2016-06-12T05:19:14.837Z,71.55
2016-06-12T05:20:11.761Z,72.02
2016-06-12T05:21:16.123Z,71.45
2016-06-12T05:22:11.689Z,71.83
2016-06-12T05:23:11.646Z,71.73
2016-06-12T05:24:14.601Z,71.83
2016-06-12T05:25:11.558Z,71.55
2016-06-12T05:26:11.513Z,71.64
2016-06-12T05:27:11.829Z,71.35
2016-06-12T05:28:14.832Z,71.25
2016-06-12T05:29:11.382Z,71.41
2016-06-12T05:30:11.323Z,71.45
2016-06-12T05:31:11.280Z,71.73
2016-06-12T05:32:11.235Z,71.06
2016-06-12T05:33:11.192Z,71.25
2016-06-12T05:34:11.210Z,71.8
2016-06-12T05:35:11.104Z,71.12
2016-06-12T05:36:11.622Z,71.51
2016-06-12T05:37:11.017Z,71.22
2016-06-12T05:38:13.973Z,71.51
2016-06-12T05:39:10.929Z,71.61
2016-06-12T05:40:10.885Z,71.41
2016-06-12T05:41:13.841Z,71.8
2016-06-12T05:42:10.782Z,71.12
2016-06-12T05:43:13.753Z,70.45
2016-06-12T05:44:10.710Z,70.74
2016-06-12T05:45:16.666Z,71.41
2016-06-12T05:46:10.591Z,71.31
2016-06-12T05:47:10.562Z,71.31
2016-06-12T05:48:10.503Z,71.51
2016-06-12T05:49:13.475Z,71.51
2016-06-12T05:50:13.431Z,71.61
2016-06-12T05:51:10.247Z,71.7
2016-06-12T05:52:10.360Z,71.98
2016-06-12T05:53:10.347Z,71.51
2016-06-12T05:54:10.241Z,71.51
2016-06-12T05:55:13.806Z,71.98
2016-06-12T05:56:10.153Z,72.08
2016-06-12T05:57:10.109Z,71.98
2016-06-12T05:58:09.925Z,71.98
2016-06-12T05:59:10.021Z,71.8
2016-06-12T06:00:10.180Z,72.56
2016-06-12T06:01:10.138Z,72.66
2016-06-12T06:02:09.874Z,72.37
2016-06-12T06:03:09.831Z,72.75
2016-06-12T06:04:09.802Z,72.56
2016-06-12T06:05:09.743Z,72.47
2016-06-12T06:06:13.230Z,72.47
2016-06-12T06:07:09.874Z,72.37
2016-06-12T06:08:09.612Z,72.95
2016-06-12T06:09:09.568Z,72.66
2016-06-12T06:10:09.524Z,72.85
2016-06-12T06:11:12.886Z,72.75
2016-06-12T06:12:18.436Z,72.75
2016-06-12T06:13:12.392Z,72.81
2016-06-12T06:14:12.380Z,72.95
2016-06-12T06:15:09.509Z,72.37
2016-06-12T06:16:09.245Z,72.85
2016-06-12T06:17:09.201Z,72.47
2016-06-12T06:18:09.158Z,72.56
2016-06-12T06:19:09.114Z,72.85
2016-06-12T06:20:09.071Z,72.91
2016-06-12T06:21:12.041Z,72.72
2016-06-12T06:22:09.248Z,72.95
2016-06-12T06:23:08.939Z,73.24
2016-06-12T06:24:08.911Z,73.04
2016-06-12T06:25:11.867Z,72.75
2016-06-12T06:26:15.011Z,73.04
2016-06-12T06:27:08.748Z,72.56
2016-06-12T06:28:11.720Z,72.95
2016-06-12T06:29:11.677Z,72.95
2016-06-12T06:30:08.930Z,72.28
2016-06-12T06:31:14.573Z,72.28
2016-06-12T06:32:11.560Z,72.56
2016-06-12T06:33:11.517Z,72.66
2016-06-12T06:34:08.426Z,71.98
2016-06-12T06:35:14.616Z,72.08
2016-06-12T06:36:08.729Z,72.18
2016-06-12T06:37:08.294Z,71.51
2016-06-12T06:38:08.251Z,71.22
2016-06-12T06:39:08.207Z,71.12
2016-06-12T06:40:08.179Z,71.03
2016-06-12T06:41:11.136Z,70.84
2016-06-12T06:42:08.075Z,70.97
2016-06-12T06:43:08.423Z,70.39
2016-06-12T06:44:07.972Z,70.01
2016-06-12T06:45:07.929Z,69.72
2016-06-12T06:46:07.885Z,69.81
2016-06-12T06:47:07.857Z,69.14
2016-06-12T06:48:07.797Z,69.05
2016-06-12T06:49:07.752Z,68.57
2016-06-12T06:50:07.709Z,68.18
2016-06-12T06:51:08.884Z,67.7
2016-06-12T06:52:07.606Z,67.74
2016-06-12T06:53:07.578Z,67.22
2016-06-12T06:54:07.362Z,67.13
2016-06-12T06:55:10.490Z,66.26
2016-06-12T06:56:07.446Z,65.97
2016-06-12T06:57:07.606Z,65.69
2016-06-12T06:58:07.344Z,65.88
2016-06-12T06:59:07.315Z,64.82
2016-06-12T07:00:10.272Z,64.95
2016-06-12T07:01:07.431Z,64.63
2016-06-12T07:02:07.168Z,64.34
2016-06-12T07:03:07.124Z,64.53
2016-06-12T07:04:07.081Z,64.43
2016-06-12T07:05:07.037Z,64.15
2016-06-12T07:06:06.993Z,64.09
2016-06-12T07:07:07.153Z,64.15
2016-06-12T07:08:06.906Z,63.48
2016-06-12T07:09:06.862Z,63.86
2016-06-12T07:10:06.802Z,63.41
2016-06-12T07:11:06.774Z,63.22
2016-06-12T07:12:06.887Z,63.22
2016-06-12T07:13:06.687Z,62.64
2016-06-12T07:14:06.642Z,62.26
2016-06-12T07:15:06.583Z,62.35
2016-06-12T07:16:06.539Z,62.07
2016-06-12T07:17:06.496Z,61.97
2016-06-12T07:18:06.452Z,62.16
2016-06-12T07:19:06.408Z,61.49
2016-06-12T07:20:06.364Z,61.78
2016-06-12T07:21:06.304Z,61.49
2016-06-12T07:22:09.292Z,61.11
2016-06-12T07:23:06.233Z,61.4
2016-06-12T07:24:09.189Z,61.11
2016-06-12T07:25:06.145Z,61.11
2016-06-12T07:26:06.086Z,61.43
2016-06-12T07:27:09.057Z,61.71
2016-06-12T07:28:08.997Z,61.61
2016-06-12T07:29:05.954Z,61.81
2016-06-12T07:30:05.926Z,62.16
2016-06-12T07:31:05.773Z,62.48
2016-06-12T07:32:05.807Z,62.77
2016-06-12T07:33:08.795Z,62.96
2016-06-12T07:34:05.751Z,63.54
2016-06-12T07:35:05.691Z,63.83
2016-06-12T07:36:05.647Z,64.12
2016-06-12T07:37:05.807Z,64.66
2016-06-12T07:38:05.545Z,64.69
2016-06-12T07:39:05.782Z,64.95
2016-06-12T07:40:08.473Z,65.33
2016-06-12T07:41:05.429Z,65.72
2016-06-12T07:42:05.369Z,65.72
2016-06-12T07:43:08.341Z,65.91
2016-06-12T07:44:05.297Z,65.72
2016-06-12T07:45:08.269Z,65.81
2016-06-12T07:46:08.210Z,66.42
2016-06-12T07:47:05.166Z,66.39
2016-06-12T07:48:05.106Z,66.3
2016-06-12T07:49:05.062Z,66.39
2016-06-12T07:50:05.018Z,65.91
2016-06-12T07:51:05.178Z,66.2
2016-06-12T07:52:05.478Z,65.81
2016-06-12T07:53:04.888Z,65.72
2016-06-12T07:54:17.047Z,65.81
2016-06-12T07:55:05.300Z,64.95
2016-06-12T07:56:04.959Z,65.23
2016-06-12T07:57:08.228Z,64.95
2016-06-12T07:58:04.668Z,64.85
2016-06-12T07:59:04.609Z,64.47
2016-06-12T08:00:04.581Z,64.28
2016-06-12T08:01:04.365Z,64.66
2016-06-12T08:02:04.478Z,64.56
2016-06-12T08:03:04.433Z,64.89
2016-06-12T08:04:04.422Z,64.76
2016-06-12T08:05:04.346Z,64.31
2016-06-12T08:06:07.317Z,64.37
2016-06-12T08:07:04.103Z,63.92
2016-06-12T08:08:07.058Z,64.22
2016-06-12T08:09:04.171Z,63.45
2016-06-12T08:10:04.127Z,63.73
2016-06-12T08:11:04.083Z,63.92
2016-06-12T08:12:04.040Z,63.73
2016-06-12T08:13:03.855Z,63.64
2016-06-12T08:14:03.952Z,63.54
2016-06-12T08:15:03.908Z,63.35
2016-06-12T08:16:03.864Z,62.96
2016-06-12T08:17:03.820Z,62.61
2016-06-12T08:18:03.964Z,62.41
2016-06-12T08:19:03.921Z,62.23
2016-06-12T08:20:03.689Z,62.41
2016-06-12T08:21:03.646Z,62.87
2016-06-12T08:22:03.586Z,62.87
2016-06-12T08:23:06.574Z,63.35
2016-06-12T08:24:06.498Z,63.35
2016-06-12T08:25:03.470Z,63.35
2016-06-12T08:26:03.427Z,63.35
2016-06-12T08:27:03.367Z,63.25
2016-06-12T08:28:03.354Z,63.64
2016-06-12T08:29:03.280Z,63.45
2016-06-12T08:30:03.251Z,63.45
2016-06-12T08:31:03.192Z,63.83
2016-06-12T08:32:06.163Z,63.73
2016-06-12T08:33:03.104Z,63.45
2016-06-12T08:34:03.061Z,63.25
2016-06-12T08:35:03.016Z,63.45
2016-06-12T08:36:02.973Z,63.15
2016-06-12T08:37:05.929Z,63.73
2016-06-12T08:38:05.932Z,63.73
2016-06-12T08:39:02.841Z,63.86
2016-06-12T08:40:02.797Z,63.95
2016-06-12T08:41:02.754Z,63.83
2016-06-12T08:42:05.711Z,64.6
2016-06-12T08:43:02.651Z,64.69
2016-06-12T08:44:05.669Z,64.79
2016-06-12T08:45:05.579Z,64.6
2016-06-12T08:46:05.534Z,64.53
2016-06-12T08:47:02.490Z,64.4
2016-06-12T08:48:05.463Z,64.4
2016-06-12T08:49:02.404Z,64.31
2016-06-12T08:50:02.360Z,64.63
2016-06-12T08:51:05.316Z,64.73
2016-06-12T08:52:02.756Z,63.92
2016-06-12T08:53:05.244Z,64.34
2016-06-12T08:54:05.170Z,64.25
2016-06-12T08:55:02.141Z,63.67
2016-06-12T08:56:02.081Z,63.67
2016-06-12T08:57:02.038Z,63.76
2016-06-12T08:58:02.197Z,63.67
2016-06-12T08:59:02.466Z,63.57
2016-06-12T09:00:01.921Z,63.48
2016-06-12T09:01:01.894Z,63.57
2016-06-12T09:02:01.834Z,63.76
2016-06-12T09:03:01.775Z,63.76
2016-06-12T09:04:04.746Z,64.05
2016-06-12T09:05:01.687Z,63.76
2016-06-12T09:06:01.643Z,63.28
2016-06-12T09:07:01.615Z,62.99
2016-06-12T09:08:04.572Z,62.9
2016-06-12T09:09:01.511Z,62.99
2016-06-12T09:10:04.469Z,63.09
2016-06-12T09:11:01.268Z,63.09
2016-06-12T09:12:01.380Z,62.99
2016-06-12T09:13:04.336Z,62.8
2016-06-12T09:14:01.294Z,62.41
2016-06-12T09:15:01.306Z,62.41
2016-06-12T09:16:01.303Z,62.61
2016-06-12T09:17:04.300Z,62.32
2016-06-12T09:18:01.500Z,62.41
2016-06-12T09:19:01.278Z,62.61
2016-06-12T09:20:01.280Z,62.41
2016-06-12T09:21:04.235Z,62.71
2016-06-12T09:22:01.065Z,61.97
2016-06-12T09:23:01.661Z,61.97
2016-06-12T09:24:01.131Z,62.35
2016-06-12T09:25:01.077Z,62.35
2016-06-12T09:26:01.054Z,62.35
2016-06-12T09:27:01.015Z,62.35
2016-06-12T09:28:00.977Z,62.26
2016-06-12T09:29:03.985Z,62.13
2016-06-12T09:30:00.927Z,61.94
2016-06-12T09:31:00.853Z,61.49
2016-06-12T09:32:00.812Z,61.68
2016-06-12T09:33:00.785Z,61.77
2016-06-12T09:34:01.181Z,61.87
2016-06-12T09:35:00.685Z,61.68
2016-06-12T09:36:00.626Z,61.58
2016-06-12T09:37:00.630Z,61.49
2016-06-12T09:38:00.805Z,61.19
2016-06-12T09:39:00.529Z,61.49
2016-06-12T09:40:00.469Z,61.1
2016-06-12T09:41:00.441Z,61.19
2016-06-12T09:42:00.383Z,60.91
2016-06-12T09:43:03.370Z,60.84
2016-06-12T09:44:00.296Z,60.65
2016-06-12T09:45:00.252Z,60.94
2016-06-12T09:46:00.224Z,60.65
2016-06-12T09:47:00.164Z,60.36
2016-06-12T09:48:00.105Z,60.17
2016-06-12T09:49:00.076Z,60.27
2016-06-12T09:50:00.033Z,59.97
2016-06-12T09:50:59.990Z,59.88
2016-06-12T09:51:59.960Z,59.78
2016-06-12T09:53:00.057Z,59.69
2016-06-12T09:54:02.858Z,59.11
2016-06-12T09:54:59.814Z,59.49
2016-06-12T09:56:02.629Z,59.2
2016-06-12T09:56:59.725Z,59.49
2016-06-12T09:57:59.683Z,59.2
2016-06-12T09:58:59.639Z,59.2
2016-06-12T09:59:59.626Z,59.11
2016-06-12T10:00:59.551Z,59.49
2016-06-12T10:01:59.538Z,59.78
2016-06-12T10:02:59.460Z,59.97
2016-06-12T10:03:59.416Z,60.55
2016-06-12T10:04:59.404Z,60.27
2016-06-12T10:05:59.329Z,60.55
2016-06-12T10:06:59.286Z,60.07
2016-06-12T10:07:59.460Z,60.07
2016-06-12T10:08:59.275Z,59.23
2016-06-12T10:09:59.185Z,59.14
2016-06-12T10:10:59.126Z,58.4
2016-06-12T10:11:59.065Z,58.3
2016-06-12T10:12:59.741Z,58.01
2016-06-12T10:14:01.982Z,57.62
2016-06-12T10:14:58.950Z,58.11
2016-06-12T10:15:58.906Z,57.43
2016-06-12T10:16:58.894Z,57.05
2016-06-12T10:17:59.225Z,56.85
2016-06-12T10:18:58.822Z,56.37
2016-06-12T10:20:01.734Z,55.79
2016-06-12T10:21:04.706Z,55.79
2016-06-12T10:21:58.643Z,55.22
2016-06-12T10:22:58.663Z,55.22
2016-06-12T10:23:58.556Z,54.83
2016-06-12T10:24:58.372Z,54.28
2016-06-12T10:25:58.359Z,54.38
2016-06-12T10:26:58.440Z,54.66
2016-06-12T10:27:58.397Z,54.09
2016-06-12T10:28:58.337Z,54.38
2016-06-12T10:29:58.293Z,54.28
2016-06-12T10:30:58.265Z,53.7
2016-06-12T10:32:01.241Z,54.09
2016-06-12T10:32:58.178Z,54.47
2016-06-12T10:33:58.134Z,54.66
2016-06-12T10:34:58.089Z,54.86
2016-06-12T10:35:58.047Z,55.41
2016-06-12T10:36:58.003Z,55.22
2016-06-12T10:37:57.959Z,55.41
2016-06-12T10:39:00.931Z,55.02
2016-06-12T10:39:57.934Z,54.54
2016-06-12T10:41:01.062Z,54.54
2016-06-12T10:41:57.799Z,54.74
2016-06-12T10:43:03.617Z,54.64
2016-06-12T10:43:57.555Z,55.12
2016-06-12T10:44:57.652Z,55.41
2016-06-12T10:45:57.608Z,55.31
2016-06-12T10:46:57.580Z,55.79
2016-06-12T10:47:57.520Z,55.51
2016-06-12T10:48:57.508Z,56.05
2016-06-12T10:49:57.449Z,56.44
2016-06-12T10:50:57.404Z,56.54
2016-06-12T10:52:00.564Z,56.92
2016-06-12T10:53:00.317Z,57.4
2016-06-12T10:53:57.272Z,58.47
2016-06-12T10:55:00.230Z,59.14
2016-06-12T10:55:57.170Z,60.3
2016-06-12T10:56:57.345Z,61.16
2016-06-12T10:57:57.114Z,62.51
2016-06-12T10:58:57.274Z,64.02
2016-06-12T10:59:57.073Z,64.79
2016-06-12T11:00:56.982Z,65.08
2016-06-12T11:01:56.922Z,66.78
2016-06-12T11:03:00.114Z,67.07
2016-06-12T11:03:59.851Z,67.65
2016-06-12T11:04:56.791Z,68.13
2016-06-12T11:05:56.748Z,68.41
2016-06-12T11:06:56.735Z,69.28
2016-06-12T11:07:56.753Z,69.95
2016-06-12T11:08:56.648Z,70.21
2016-06-12T11:09:56.588Z,70.98
2016-06-12T11:10:59.544Z,71.75
2016-06-12T11:11:56.500Z,72.42
2016-06-12T11:12:56.488Z,71.94
2016-06-12T11:13:56.413Z,72.42
2016-06-12T11:14:56.370Z,72.77
2016-06-12T11:15:56.341Z,72.96
2016-06-12T11:16:56.266Z,73.06
2016-06-12T11:17:56.254Z,73.15
2016-06-12T11:18:56.787Z,73.35
2016-06-12T11:19:56.182Z,73.73
2016-06-12T11:20:56.091Z,73.73
2016-06-12T11:21:56.047Z,73.63
2016-06-12T11:23:05.037Z,73.54
2016-06-12T11:23:55.990Z,73.92
2016-06-12T11:24:55.915Z,74.3
2016-06-12T11:25:55.871Z,74.21
2016-06-12T11:26:58.843Z,74.3
2016-06-12T11:27:55.784Z,74.6
2016-06-12T11:28:55.927Z,74.3
2016-06-12T11:29:58.697Z,75.07
2016-06-12T11:30:55.652Z,74.79
2016-06-12T11:31:55.593Z,74.98
2016-06-12T11:32:55.550Z,75.27
2016-06-12T11:33:55.521Z,75.37
2016-06-12T11:34:55.478Z,75.37
2016-06-12T11:35:55.418Z,75.37
2016-06-12T11:36:55.374Z,75.27
2016-06-12T11:37:55.347Z,75.84
2016-06-12T11:38:55.366Z,75.65
2016-06-12T11:39:55.244Z,75.56
2016-06-12T11:40:55.200Z,75.65
2016-06-12T11:41:58.358Z,76.14
2016-06-12T11:42:55.111Z,76.14
2016-06-12T11:43:55.067Z,75.94
2016-06-12T11:45:01.258Z,76.14
2016-06-12T11:45:57.980Z,75.56
2016-06-12T11:46:57.936Z,75.37
2016-06-12T11:47:54.893Z,74.88
2016-06-12T11:48:54.849Z,74.11
2016-06-12T11:50:08.933Z,74.4
2016-06-12T11:50:54.777Z,73.92
2016-06-12T11:51:54.733Z,73.92
2016-06-12T11:52:55.454Z,74.02
2016-06-12T11:53:54.615Z,74.3
2016-06-12T11:54:54.789Z,74.5
2016-06-12T11:55:54.527Z,74.02
2016-06-12T11:56:54.483Z,74.02
2016-06-12T11:57:57.438Z,73.96
2016-06-12T11:58:57.410Z,73.38
2016-06-12T11:59:54.351Z,72.52
2016-06-12T12:00:54.308Z,71.75
2016-06-12T12:01:54.264Z,70.92
2016-06-12T12:02:54.235Z,70.34
2016-06-12T12:03:54.379Z,70.18
2016-06-12T12:04:54.351Z,70.09
2016-06-12T12:05:54.088Z,69.51
2016-06-12T12:06:54.044Z,69.73
2016-06-12T12:07:54.000Z,69.45
2016-06-12T12:08:53.972Z,69.54
2016-06-12T12:09:53.913Z,69.25
2016-06-12T12:10:53.917Z,69.25
2016-06-12T12:11:56.841Z,69.48
2016-06-12T12:12:53.797Z,69.57
2016-06-12T12:13:53.738Z,69.77
2016-06-12T12:14:53.976Z,69.77
2016-06-12T12:15:53.650Z,69.38
2016-06-12T12:16:53.608Z,69.29
2016-06-12T12:17:53.563Z,69.38
2016-06-12T12:18:53.738Z,69.57
2016-06-12T12:19:53.492Z,69.29
2016-06-12T12:20:53.432Z,68.8
2016-06-12T12:21:53.388Z,68.32
2016-06-12T12:22:53.891Z,68.04
2016-06-12T12:24:02.300Z,67.55
2016-06-12T12:24:53.256Z,67.26
2016-06-12T12:25:56.228Z,65.91
2016-06-12T12:26:53.622Z,66.2
2016-06-12T12:27:53.140Z,65.33
2016-06-12T12:28:53.284Z,64.86
2016-06-12T12:29:53.037Z,64.18
2016-06-12T12:30:53.009Z,63.67
2016-06-12T12:31:53.169Z,63.85
2016-06-12T12:32:53.124Z,63.95
2016-06-12T12:33:52.863Z,63.67
2016-06-12T12:34:52.819Z,63.85
2016-06-12T12:35:55.805Z,63.38
2016-06-12T12:36:52.730Z,63.95
2016-06-12T12:37:52.733Z,64.5
2016-06-12T12:38:52.705Z,64.15
2016-06-12T12:39:55.818Z,64.12
2016-06-12T12:40:55.587Z,64.5
2016-06-12T12:41:55.542Z,64.79
2016-06-12T12:42:52.483Z,64.69
2016-06-12T12:43:55.455Z,64.98
2016-06-12T12:44:52.397Z,65.17
2016-06-12T12:45:52.352Z,65.46
2016-06-12T12:46:52.308Z,65.46
2016-06-12T12:47:55.280Z,65.37
2016-06-12T12:48:52.626Z,65.81
2016-06-12T12:49:52.177Z,65.72
2016-06-12T12:50:52.133Z,66.2
2016-06-12T12:51:52.090Z,66.78
2016-06-12T12:52:52.389Z,67.26
2016-06-12T12:53:52.424Z,68.03